Terminal Aerodrome Forecast
Issued by NWS

Home | Current Version | Previous Version | Text Only | Print | Product List | Glossary On
Versions: 1 2 3 4 5 6 7 8 9 10 11 12 13 14 15 16 17 18 19 20 21 22 23 24 25 26 27 28
000
FTUS43 KILX 302100 AAB
TAFCMI
TAF AMD
KCMI 302100Z 3021/0118 16014G22KT P6SM -SHRA SCT008 OVC060
      TEMPO 3021/0101 3SM SHRA BR BKN008 OVC025
     FM010100 18016G25KT 6SM -SHRA BR VCTS SCT015CB BKN025
      TEMPO 0102/0105 3SM TSRA BR BKN015CB
     FM010500 20016G22KT P6SM SHRA BKN035
     FM011400 22020G28KT P6SM BKN020=

USA.gov is the U.S. government's official web portal to all federal, state and local government web resources and services.